createdAt,value
2023-10-02T00:01:05.759Z,8.60
2023-10-02T00:03:36.192Z,9.33
2023-10-02T00:06:05.031Z,8.70
2023-10-02T00:08:41.301Z,8.40
2023-10-02T00:11:36.141Z,8.37
2023-10-02T00:14:24.251Z,7.47
2023-10-02T00:17:00.366Z,7.77
2023-10-02T00:19:38.299Z,7.73
2023-10-02T00:22:10.493Z,8.17
2023-10-02T00:24:46.563Z,6.97
2023-10-02T00:27:15.041Z,7.80
2023-10-02T00:29:53.111Z,7.37
2023-10-02T00:32:22.274Z,7.17
2023-10-02T00:34:52.327Z,7.30
2023-10-02T00:37:21.834Z,6.83
2023-10-02T00:39:53.737Z,6.83
2023-10-02T00:42:26.506Z,7.07
2023-10-02T00:44:56.003Z,7.43
2023-10-02T00:47:46.648Z,7.40
2023-10-02T00:50:20.319Z,7.83
2023-10-02T00:53:09.043Z,6.60
2023-10-02T00:55:38.585Z,6.50
2023-10-02T00:58:09.927Z,6.60
2023-10-02T01:00:43.613Z,6.73
2023-10-02T01:03:16.511Z,6.93
2023-10-02T01:05:51.938Z,7.10
2023-10-02T01:08:26.791Z,7.50
2023-10-02T01:10:58.966Z,7.43
2023-10-02T01:13:30.920Z,7.17
2023-10-02T01:16:04.984Z,7.10
2023-10-02T01:18:34.539Z,7.60
2023-10-02T01:21:11.313Z,6.97
2023-10-02T01:24:08.347Z,6.87
2023-10-02T01:26:41.971Z,7.10
2023-10-02T01:29:12.748Z,7.60
2023-10-02T01:31:46.723Z,6.43
2023-10-02T01:34:35.002Z,6.40
2023-10-02T01:37:26.338Z,6.60
2023-10-02T01:40:16.703Z,7.10
2023-10-02T01:42:46.164Z,6.90
2023-10-02T01:45:14.797Z,7.93
2023-10-02T01:47:43.609Z,6.60
2023-10-02T01:50:12.275Z,7.07
2023-10-02T01:52:52.163Z,7.43
2023-10-02T01:55:30.890Z,7.30
2023-10-02T01:58:18.431Z,7.13
2023-10-02T02:00:47.922Z,6.27
2023-10-02T02:03:16.702Z,7.13
2023-10-02T02:05:47.988Z,7.30
2023-10-02T02:08:25.834Z,6.90
2023-10-02T02:11:15.999Z,7.00
2023-10-02T02:13:48.431Z,6.70
2023-10-02T02:16:23.326Z,6.80
2023-10-02T02:18:55.234Z,6.37
2023-10-02T02:21:26.749Z,6.90
2023-10-02T02:24:08.184Z,6.50
2023-10-02T02:26:40.814Z,6.37
2023-10-02T02:29:25.620Z,7.40
2023-10-02T02:31:56.487Z,7.13
2023-10-02T02:34:26.612Z,6.33
2023-10-02T02:36:58.697Z,7.10
2023-10-02T02:39:29.504Z,5.80
2023-10-02T02:42:19.891Z,6.23
2023-10-02T02:44:51.154Z,5.97
2023-10-02T02:47:23.427Z,6.27
2023-10-02T02:49:59.852Z,5.80
2023-10-02T02:52:33.760Z,5.67
2023-10-02T02:55:06.862Z,6.33
2023-10-02T02:57:40.524Z,6.33
2023-10-02T03:00:28.587Z,5.70
2023-10-02T03:03:01.671Z,6.03
2023-10-02T03:05:42.145Z,5.73
2023-10-02T03:08:12.772Z,5.53
2023-10-02T03:10:42.137Z,6.20
2023-10-02T03:13:17.726Z,6.20
2023-10-02T03:15:50.054Z,6.20
2023-10-02T03:18:31.832Z,5.43
2023-10-02T03:21:06.635Z,5.37
2023-10-02T03:23:39.206Z,5.43
2023-10-02T03:26:28.278Z,5.47
2023-10-02T03:29:04.465Z,5.60
2023-10-02T03:31:38.670Z,6.07
2023-10-02T03:34:23.544Z,5.40
2023-10-02T03:36:52.802Z,5.53
2023-10-02T03:39:35.356Z,5.50
2023-10-02T03:42:03.841Z,4.80
2023-10-02T03:44:36.902Z,5.10
2023-10-02T03:47:05.694Z,5.63
2023-10-02T03:49:35.189Z,4.80
2023-10-02T03:52:04.013Z,4.53
2023-10-02T03:54:33.152Z,5.50
2023-10-02T03:57:03.628Z,5.27
2023-10-02T03:59:34.483Z,5.20
2023-10-02T04:02:16.940Z,5.10
2023-10-02T04:04:45.535Z,5.63
2023-10-02T04:07:14.498Z,4.97
2023-10-02T04:09:43.077Z,5.03
2023-10-02T04:12:13.823Z,5.20
2023-10-02T04:14:44.150Z,4.80
2023-10-02T04:17:14.595Z,4.53
2023-10-02T04:19:49.038Z,4.87
2023-10-02T04:22:21.390Z,5.27
2023-10-02T04:24:59.816Z,5.20
2023-10-02T04:27:51.347Z,4.90
2023-10-02T04:30:25.472Z,4.93
2023-10-02T04:33:00.453Z,5.30
2023-10-02T04:35:46.103Z,5.40
2023-10-02T04:38:16.400Z,5.13
2023-10-02T04:40:51.598Z,4.33
2023-10-02T04:43:25.255Z,4.87
2023-10-02T04:46:03.741Z,4.90
2023-10-02T04:48:41.387Z,4.57
2023-10-02T04:51:09.983Z,5.07
2023-10-02T04:53:47.022Z,4.70
2023-10-02T04:56:23.657Z,4.43
2023-10-02T04:58:52.591Z,4.87
2023-10-02T05:01:35.842Z,4.47
2023-10-02T05:04:04.765Z,4.83
2023-10-02T05:06:56.622Z,4.20
2023-10-02T05:09:26.843Z,4.20
2023-10-02T05:12:05.156Z,4.80
2023-10-02T05:14:35.785Z,4.33
2023-10-02T05:17:41.671Z,4.50
2023-10-02T05:20:15.265Z,4.67
2023-10-02T05:22:46.648Z,4.80
2023-10-02T05:25:19.521Z,4.80
2023-10-02T05:27:48.824Z,4.17
2023-10-02T05:30:19.651Z,4.87
2023-10-02T05:32:49.866Z,4.57
2023-10-02T05:35:19.720Z,3.90
2023-10-02T05:37:53.165Z,4.40
2023-10-02T05:40:39.248Z,4.00
2023-10-02T05:43:19.216Z,4.30
2023-10-02T05:45:52.202Z,3.90
2023-10-02T05:48:39.118Z,4.23
2023-10-02T05:51:11.237Z,4.00
2023-10-02T05:53:54.480Z,4.30
2023-10-02T05:56:23.208Z,4.63
2023-10-02T05:58:52.156Z,4.27
2023-10-02T06:01:27.725Z,4.07
2023-10-02T06:04:02.231Z,4.10
2023-10-02T06:06:37.802Z,4.33
2023-10-02T06:09:15.431Z,3.97
2023-10-02T06:12:06.568Z,4.17
2023-10-02T06:14:40.640Z,4.30
2023-10-02T06:17:13.318Z,3.93
2023-10-02T06:19:46.206Z,4.23
2023-10-02T06:22:15.851Z,4.23
2023-10-02T06:24:45.050Z,4.33
2023-10-02T06:27:17.542Z,4.23
2023-10-02T06:29:48.787Z,4.27
2023-10-02T06:32:21.092Z,3.67
2023-10-02T06:34:54.749Z,3.80
2023-10-02T06:37:30.025Z,4.10
2023-10-02T06:40:05.982Z,4.20
2023-10-02T06:42:35.761Z,4.57
2023-10-02T06:45:10.485Z,4.03
2023-10-02T06:47:39.076Z,3.80
2023-10-02T06:50:28.655Z,3.77
2023-10-02T06:52:59.186Z,3.53
2023-10-02T06:55:28.209Z,4.17
2023-10-02T06:57:57.939Z,4.17
2023-10-02T07:00:37.918Z,4.17
2023-10-02T07:03:09.658Z,3.83
2023-10-02T07:05:41.036Z,3.90
2023-10-02T07:08:20.359Z,3.87
2023-10-02T07:10:50.241Z,4.00
2023-10-02T07:13:21.743Z,4.20
2023-10-02T07:15:56.736Z,3.47
2023-10-02T07:18:36.479Z,3.80
2023-10-02T07:21:08.816Z,3.93
2023-10-02T07:23:40.049Z,3.93
2023-10-02T07:26:16.820Z,3.80
2023-10-02T07:28:53.141Z,4.23
2023-10-02T07:31:22.613Z,3.93
2023-10-02T07:33:56.546Z,3.80
2023-10-02T07:36:28.015Z,3.80
2023-10-02T07:38:56.772Z,3.90
2023-10-02T07:41:25.777Z,3.57
2023-10-02T07:43:55.414Z,3.87
2023-10-02T07:46:24.834Z,3.87
2023-10-02T07:48:58.681Z,4.07
2023-10-02T07:51:37.384Z,3.60
2023-10-02T07:54:08.585Z,3.87
2023-10-02T07:56:37.623Z,4.00
2023-10-02T07:59:09.024Z,4.40
2023-10-02T08:01:40.352Z,4.07
2023-10-02T08:04:09.136Z,3.80
2023-10-02T08:06:43.480Z,3.50
2023-10-02T08:09:31.652Z,4.07
2023-10-02T08:12:01.395Z,3.97
2023-10-02T08:14:43.475Z,4.07
2023-10-02T08:17:24.111Z,3.97
2023-10-02T08:19:58.143Z,3.90
2023-10-02T08:22:37.290Z,4.00
2023-10-02T08:25:14.925Z,4.17
2023-10-02T08:27:47.357Z,4.30
2023-10-02T08:30:29.009Z,4.47
2023-10-02T08:33:11.562Z,4.00
2023-10-02T08:35:49.568Z,4.27
2023-10-02T08:38:24.233Z,3.93
2023-10-02T08:40:58.737Z,4.40
2023-10-02T08:43:28.487Z,4.60
2023-10-02T08:45:58.223Z,4.40
2023-10-02T08:48:31.257Z,3.50
2023-10-02T08:51:01.108Z,4.10
2023-10-02T08:53:31.315Z,4.13
2023-10-02T08:56:24.493Z,4.53
2023-10-02T08:59:13.930Z,4.47
2023-10-02T09:01:42.578Z,4.37
2023-10-02T09:04:29.683Z,4.50
2023-10-02T09:07:15.811Z,4.60
2023-10-02T09:09:56.395Z,5.33
2023-10-02T09:12:26.276Z,4.90
2023-10-02T09:14:56.244Z,5.47
2023-10-02T09:17:25.366Z,4.33
2023-10-02T09:20:01.472Z,4.50
2023-10-02T09:22:30.669Z,4.47
2023-10-02T09:25:14.246Z,4.50
2023-10-02T09:27:57.958Z,4.37
2023-10-02T09:30:42.882Z,4.03
2023-10-02T09:33:17.879Z,4.53
2023-10-02T09:36:38.864Z,5.50
2023-10-02T09:38:52.172Z,4.30
2023-10-02T09:41:24.780Z,4.57
2023-10-02T09:43:55.888Z,4.00
2023-10-02T09:46:30.709Z,4.23
2023-10-02T09:49:11.106Z,4.40
2023-10-02T09:52:11.058Z,4.53
2023-10-02T09:54:52.478Z,4.50
2023-10-02T09:57:31.008Z,4.37
2023-10-02T10:00:00.790Z,4.70
2023-10-02T10:02:46.789Z,3.97
2023-10-02T10:05:45.353Z,4.77
2023-10-02T10:08:20.475Z,4.20
2023-10-02T10:10:54.236Z,4.13
2023-10-02T10:13:38.236Z,4.97
2023-10-02T10:16:36.879Z,4.47
2023-10-02T10:19:33.361Z,4.57
2023-10-02T10:22:06.148Z,4.80
2023-10-02T10:25:20.893Z,4.20
2023-10-02T10:27:56.656Z,4.90
2023-10-02T10:30:45.774Z,4.43
2023-10-02T10:33:42.904Z,4.80
2023-10-02T10:36:40.545Z,4.43
2023-10-02T10:39:58.293Z,4.53
2023-10-02T10:42:25.872Z,5.23
2023-10-02T10:44:59.362Z,4.80
2023-10-02T10:47:47.017Z,4.77
2023-10-02T10:50:31.860Z,4.73
2023-10-02T10:53:18.260Z,4.90
2023-10-02T10:55:48.743Z,4.20
2023-10-02T10:58:32.698Z,4.60
2023-10-02T11:01:03.625Z,4.67
2023-10-02T11:03:35.825Z,4.60
2023-10-02T11:06:06.060Z,4.90
2023-10-02T11:08:39.152Z,4.60
2023-10-02T11:11:20.041Z,4.90
2023-10-02T11:13:55.621Z,4.37
2023-10-02T11:16:33.575Z,4.47
2023-10-02T11:19:27.039Z,4.93
2023-10-02T11:22:20.272Z,4.53
2023-10-02T11:25:19.841Z,5.07
2023-10-02T11:27:58.424Z,4.40
2023-10-02T11:30:33.696Z,4.47
2023-10-02T11:33:06.433Z,4.47
2023-10-02T11:35:42.141Z,4.67
2023-10-02T11:38:11.721Z,4.50
2023-10-02T11:40:44.760Z,4.50
2023-10-02T11:43:16.318Z,4.83
2023-10-02T11:45:45.476Z,5.17
2023-10-02T11:48:14.502Z,4.40
2023-10-02T11:50:45.222Z,4.60
2023-10-02T11:53:14.283Z,4.53
2023-10-02T11:55:42.841Z,4.67
2023-10-02T11:58:11.343Z,4.47
2023-10-02T12:00:39.862Z,4.73
2023-10-02T12:03:08.616Z,4.40
2023-10-02T12:05:38.537Z,4.40
2023-10-02T12:08:09.380Z,4.03
2023-10-02T12:10:40.387Z,4.97
2023-10-02T12:13:10.337Z,4.57
2023-10-02T12:15:39.368Z,4.77
2023-10-02T12:18:08.889Z,4.20
2023-10-02T12:20:43.992Z,4.30
2023-10-02T12:23:15.780Z,4.77
2023-10-02T12:25:49.120Z,4.43
2023-10-02T12:28:18.352Z,4.20
2023-10-02T12:30:46.924Z,4.20
2023-10-02T12:33:17.871Z,4.30
2023-10-02T12:35:46.434Z,4.30
2023-10-02T12:38:16.389Z,4.43
2023-10-02T12:40:44.962Z,4.87
2023-10-02T12:43:13.876Z,4.47
2023-10-02T12:45:42.364Z,4.50
2023-10-02T12:48:12.998Z,4.73
2023-10-02T12:50:43.101Z,4.60
2023-10-02T12:53:12.344Z,4.47
2023-10-02T12:55:45.225Z,4.57
2023-10-02T12:58:14.481Z,4.53
2023-10-02T13:00:43.018Z,4.33
2023-10-02T13:03:11.752Z,4.47
2023-10-02T13:05:40.398Z,4.67
2023-10-02T13:08:10.833Z,4.70
2023-10-02T13:10:40.709Z,4.90
2023-10-02T13:13:13.133Z,4.47
2023-10-02T13:15:41.665Z,4.70
2023-10-02T13:18:10.337Z,4.80
2023-10-02T13:20:40.265Z,4.77
2023-10-02T13:23:08.869Z,4.43
2023-10-02T13:25:37.658Z,4.40
2023-10-02T13:28:07.056Z,4.50
2023-10-02T13:30:38.606Z,4.80
2023-10-02T13:33:07.302Z,4.00
2023-10-02T13:35:39.456Z,4.97
2023-10-02T13:38:11.250Z,4.40
2023-10-02T13:40:40.248Z,4.73
2023-10-02T13:43:08.854Z,4.43
2023-10-02T13:45:38.736Z,4.53
2023-10-02T13:48:08.179Z,4.40
2023-10-02T13:50:49.287Z,4.40
2023-10-02T13:53:27.475Z,4.53
2023-10-02T13:55:56.179Z,4.13
2023-10-02T13:58:24.640Z,4.40
2023-10-02T14:00:54.608Z,5.00
2023-10-02T14:03:23.415Z,4.97
2023-10-02T14:05:52.797Z,4.20
2023-10-02T14:08:21.372Z,4.80
2023-10-02T14:10:50.180Z,4.47
2023-10-02T14:13:18.634Z,4.50
2023-10-02T14:15:47.385Z,4.63
2023-10-02T14:18:17.940Z,5.30
2023-10-02T14:20:46.507Z,4.80
2023-10-02T14:23:15.629Z,4.37
2023-10-02T14:25:44.155Z,4.70
2023-10-02T14:28:13.581Z,4.73
2023-10-02T14:30:42.369Z,4.70
2023-10-02T14:33:10.907Z,4.50
2023-10-02T14:35:53.407Z,4.93
2023-10-02T14:38:24.176Z,4.80
2023-10-02T14:40:54.120Z,4.60
2023-10-02T14:43:22.779Z,4.77
2023-10-02T14:45:52.952Z,4.53
2023-10-02T14:50:56.446Z,4.90
2023-10-02T14:53:25.164Z,4.57
2023-10-02T14:55:53.893Z,4.97
2023-10-02T14:58:23.034Z,4.70
2023-10-02T15:00:51.501Z,5.63
2023-10-02T15:03:20.222Z,6.70
2023-10-02T15:05:49.091Z,4.70
2023-10-02T15:08:19.069Z,7.10
2023-10-02T15:10:49.480Z,5.47
2023-10-02T15:13:19.114Z,5.37
2023-10-02T15:15:47.715Z,5.67
2023-10-02T15:18:16.226Z,6.00
2023-10-02T15:20:44.924Z,5.40
2023-10-02T15:23:14.746Z,5.70
2023-10-02T15:25:44.706Z,5.83
2023-10-02T15:28:13.372Z,5.67
2023-10-02T15:30:41.988Z,5.87
2023-10-02T15:33:10.694Z,5.60
2023-10-02T15:35:39.489Z,5.93
2023-10-02T15:38:08.171Z,5.60
2023-10-02T15:40:40.619Z,5.87
2023-10-02T15:43:10.639Z,6.50
2023-10-02T15:45:40.090Z,5.40
2023-10-02T15:48:08.780Z,6.77
2023-10-02T15:50:37.346Z,5.90
2023-10-02T15:53:06.446Z,6.77
2023-10-02T15:55:34.939Z,6.77
2023-10-02T15:58:03.361Z,6.40
2023-10-02T16:00:33.515Z,6.43
2023-10-02T16:03:03.197Z,6.40
2023-10-02T16:05:35.248Z,5.97
2023-10-02T16:08:04.007Z,7.13
2023-10-02T16:10:32.807Z,6.30
2023-10-02T16:13:01.326Z,6.87
2023-10-02T16:15:31.351Z,6.23
2023-10-02T16:18:01.395Z,6.57
2023-10-02T16:20:31.031Z,6.07
2023-10-02T16:23:01.141Z,5.50
2023-10-02T16:25:31.151Z,6.03
2023-10-02T16:28:01.424Z,5.10
2023-10-02T16:30:30.334Z,6.13
2023-10-02T16:33:02.158Z,6.87
2023-10-02T16:35:32.898Z,6.60
2023-10-02T16:38:05.726Z,6.00
2023-10-02T16:40:35.249Z,5.50
2023-10-02T16:43:06.144Z,5.80
2023-10-02T16:45:35.234Z,5.87
2023-10-02T16:48:07.053Z,6.33
2023-10-02T16:50:36.797Z,6.20
2023-10-02T16:53:05.704Z,6.33
2023-10-02T16:55:34.292Z,5.60
2023-10-02T16:58:03.822Z,5.73
2023-10-02T17:00:32.979Z,5.63
2023-10-02T17:03:01.626Z,5.67
2023-10-02T17:05:31.765Z,5.47
2023-10-02T17:08:00.447Z,5.53
2023-10-02T17:10:29.854Z,6.00
2023-10-02T17:13:00.750Z,6.10
2023-10-02T17:15:33.016Z,5.57
2023-10-02T17:18:02.891Z,5.67
2023-10-02T17:20:32.946Z,6.50
2023-10-02T17:23:03.134Z,5.67
2023-10-02T17:25:32.629Z,6.00
2023-10-02T17:28:05.148Z,5.80
2023-10-02T17:30:33.897Z,5.40
2023-10-02T17:33:03.808Z,5.90
2023-10-02T17:35:35.377Z,6.50
2023-10-02T17:38:04.750Z,7.67
2023-10-02T17:40:33.450Z,6.50
2023-10-02T17:43:02.157Z,7.40
2023-10-02T17:45:30.704Z,6.53
2023-10-02T17:47:59.651Z,7.30
2023-10-02T17:50:28.240Z,6.60
2023-10-02T17:52:58.194Z,7.23
2023-10-02T17:55:26.743Z,6.20
2023-10-02T17:57:57.618Z,6.43
2023-10-02T18:00:27.363Z,6.37
2023-10-02T18:02:56.528Z,6.70
2023-10-02T18:05:25.785Z,5.60
2023-10-02T18:07:54.284Z,5.70
2023-10-02T18:10:24.653Z,5.20
2023-10-02T18:12:53.224Z,5.83
2023-10-02T18:15:21.995Z,6.70
2023-10-02T18:17:50.668Z,5.93
2023-10-02T18:20:20.738Z,5.40
2023-10-02T18:22:50.516Z,6.20
2023-10-02T18:25:20.704Z,6.13
2023-10-02T18:27:50.706Z,6.00
2023-10-02T18:30:19.515Z,6.40
2023-10-02T18:32:48.242Z,5.97
2023-10-02T18:35:19.933Z,6.73
2023-10-02T18:37:48.663Z,5.43
2023-10-02T18:40:17.611Z,6.10
2023-10-02T18:42:46.104Z,6.37
2023-10-02T18:45:16.730Z,6.97
2023-10-02T18:47:47.046Z,6.23
2023-10-02T18:50:16.020Z,6.33
2023-10-02T18:52:45.717Z,6.13
2023-10-02T18:55:14.254Z,6.57
2023-10-02T18:57:43.064Z,6.40
2023-10-02T19:00:14.152Z,6.20
2023-10-02T19:02:44.188Z,6.13
2023-10-02T19:05:13.490Z,6.70
2023-10-02T19:07:43.324Z,6.30
2023-10-02T19:10:12.426Z,6.97
2023-10-02T19:12:40.863Z,6.73
2023-10-02T19:15:12.913Z,6.47
2023-10-02T19:17:41.501Z,6.70
2023-10-02T19:20:13.546Z,6.87
2023-10-02T19:22:43.049Z,7.07
2023-10-02T19:25:13.329Z,6.83
2023-10-02T19:27:41.943Z,6.83
2023-10-02T19:30:12.523Z,6.27
2023-10-02T19:32:43.122Z,7.23
2023-10-02T19:35:14.248Z,6.73
2023-10-02T19:37:42.801Z,6.70
2023-10-02T19:40:16.869Z,7.20
2023-10-02T19:42:47.203Z,6.97
2023-10-02T19:45:15.961Z,6.50
2023-10-02T19:47:45.108Z,6.40
2023-10-02T19:50:17.842Z,6.53
2023-10-02T19:52:47.375Z,7.23
2023-10-02T19:55:17.362Z,6.83
2023-10-02T19:57:46.425Z,6.63
2023-10-02T20:00:19.596Z,6.20
2023-10-02T20:02:48.278Z,6.17
2023-10-02T20:05:18.582Z,6.70
2023-10-02T20:07:47.768Z,6.87
2023-10-02T20:10:18.119Z,6.33
2023-10-02T20:12:49.328Z,6.87
2023-10-02T20:15:18.626Z,6.37
2023-10-02T20:17:47.700Z,6.57
2023-10-02T20:20:18.072Z,6.50
2023-10-02T20:22:46.711Z,6.33
2023-10-02T20:25:16.016Z,7.07
2023-10-02T20:27:44.500Z,6.73
2023-10-02T20:30:16.617Z,7.10
2023-10-02T20:32:45.577Z,7.13
2023-10-02T20:35:14.162Z,6.50
2023-10-02T20:37:44.115Z,6.60
2023-10-02T20:40:16.502Z,6.33
2023-10-02T20:42:44.959Z,6.90
2023-10-02T20:45:14.507Z,6.50
2023-10-02T20:47:43.287Z,6.57
2023-10-02T20:50:12.185Z,6.83
2023-10-02T20:52:40.799Z,6.33
2023-10-02T20:55:11.291Z,6.60
2023-10-02T20:57:40.848Z,6.30
2023-10-02T21:00:15.541Z,6.30
2023-10-02T21:02:46.438Z,6.80
2023-10-02T21:05:15.565Z,6.90
2023-10-02T21:07:44.722Z,6.40
2023-10-02T21:10:18.336Z,6.37
2023-10-02T21:12:47.187Z,6.53
2023-10-02T21:15:16.396Z,6.23
2023-10-02T21:17:45.869Z,6.87
2023-10-02T21:20:16.559Z,6.60
2023-10-02T21:22:46.977Z,6.30
2023-10-02T21:25:17.588Z,6.20
2023-10-02T21:27:46.571Z,6.53
2023-10-02T21:30:15.932Z,6.63
2023-10-02T21:32:44.715Z,6.67
2023-10-02T21:35:13.730Z,6.53
2023-10-02T21:37:42.727Z,5.97
2023-10-02T21:40:15.103Z,6.27
2023-10-02T21:42:45.283Z,6.30
2023-10-02T21:45:14.133Z,6.27
2023-10-02T21:47:43.174Z,6.50
2023-10-02T21:50:13.232Z,6.90
2023-10-02T21:52:41.838Z,7.00
2023-10-02T21:55:13.279Z,6.03
2023-10-02T21:57:42.038Z,6.17
2023-10-02T22:00:28.071Z,6.13
2023-10-02T22:02:56.795Z,5.57
2023-10-02T22:05:26.551Z,6.33
2023-10-02T22:07:57.106Z,5.70
2023-10-02T22:10:26.229Z,6.17
2023-10-02T22:12:54.807Z,6.23
2023-10-02T22:15:24.827Z,5.83
2023-10-02T22:17:56.931Z,6.07
2023-10-02T22:20:26.780Z,6.30
2023-10-02T22:22:55.641Z,5.57
2023-10-02T22:25:24.908Z,5.57
2023-10-02T22:27:54.831Z,5.60
2023-10-02T22:30:24.779Z,6.77
2023-10-02T22:32:53.361Z,6.40
2023-10-02T22:35:25.330Z,5.83
2023-10-02T22:37:58.951Z,6.00
2023-10-02T22:40:27.854Z,6.47
2023-10-02T22:42:58.180Z,6.00
2023-10-02T22:45:28.387Z,6.77
2023-10-02T22:47:58.106Z,6.03
2023-10-02T22:50:26.989Z,6.40
2023-10-02T22:53:33.341Z,5.93
2023-10-02T22:56:20.443Z,5.77
2023-10-02T22:58:49.761Z,5.60
2023-10-02T23:01:20.749Z,5.13
2023-10-02T23:03:49.748Z,5.87
2023-10-02T23:06:19.872Z,5.87
2023-10-02T23:08:48.439Z,5.13
2023-10-02T23:11:18.177Z,5.10
2023-10-02T23:13:46.802Z,5.37
2023-10-02T23:16:15.523Z,6.33
2023-10-02T23:18:47.656Z,5.40
2023-10-02T23:21:16.524Z,4.83
2023-10-02T23:23:46.437Z,5.60
2023-10-02T23:26:18.565Z,5.10
2023-10-02T23:28:50.277Z,5.87
2023-10-02T23:31:18.967Z,5.30
2023-10-02T23:33:49.245Z,5.47
2023-10-02T23:36:17.860Z,5.57
2023-10-02T23:38:47.187Z,5.47
2023-10-02T23:41:16.238Z,5.30
2023-10-02T23:43:46.102Z,5.80
2023-10-02T23:46:15.902Z,5.63
2023-10-02T23:48:46.382Z,5.67
2023-10-02T23:51:16.437Z,4.83
2023-10-02T23:53:45.361Z,5.00
2023-10-02T23:56:15.490Z,5.60
2023-10-02T23:58:44.721Z,5.00
